sensor_id;sensor_type;location;lat;lon;timestamp;P1;durP1;ratioP1;P2;durP2;ratioP2
17482;SDS011;8858;52.308;20.994;2023-02-16T00:01:12;67.43;;;43.63;;
17482;SDS011;8858;52.308;20.994;2023-02-16T00:03:44;71.90;;;44.13;;
17482;SDS011;8858;52.308;20.994;2023-02-16T00:06:14;73.60;;;44.10;;
17482;SDS011;8858;52.308;20.994;2023-02-16T00:08:43;68.50;;;45.80;;
17482;SDS011;8858;52.308;20.994;2023-02-16T00:11:15;66.13;;;44.30;;
17482;SDS011;8858;52.308;20.994;2023-02-16T00:14:08;70.50;;;45.07;;
17482;SDS011;8858;52.308;20.994;2023-02-16T00:16:37;73.67;;;46.03;;
17482;SDS011;8858;52.308;20.994;2023-02-16T00:19:14;71.10;;;45.30;;
17482;SDS011;8858;52.308;20.994;2023-02-16T00:21:44;73.97;;;43.93;;
17482;SDS011;8858;52.308;20.994;2023-02-16T00:24:16;70.17;;;45.27;;
17482;SDS011;8858;52.308;20.994;2023-02-16T00:26:45;75.07;;;45.17;;
17482;SDS011;8858;52.308;20.994;2023-02-16T00:29:17;75.80;;;47.40;;
17482;SDS011;8858;52.308;20.994;2023-02-16T00:31:47;70.70;;;44.93;;
17482;SDS011;8858;52.308;20.994;2023-02-16T00:34:28;71.63;;;44.33;;
17482;SDS011;8858;52.308;20.994;2023-02-16T00:37:01;73.30;;;45.60;;
17482;SDS011;8858;52.308;20.994;2023-02-16T00:39:32;74.67;;;46.80;;
17482;SDS011;8858;52.308;20.994;2023-02-16T00:42:02;77.17;;;46.47;;
17482;SDS011;8858;52.308;20.994;2023-02-16T00:44:34;74.07;;;46.50;;
17482;SDS011;8858;52.308;20.994;2023-02-16T00:47:09;70.10;;;44.77;;
17482;SDS011;8858;52.308;20.994;2023-02-16T00:49:44;74.07;;;45.27;;
17482;SDS011;8858;52.308;20.994;2023-02-16T00:52:23;68.00;;;43.83;;
17482;SDS011;8858;52.308;20.994;2023-02-16T00:55:04;74.30;;;46.10;;
17482;SDS011;8858;52.308;20.994;2023-02-16T00:57:36;72.93;;;44.73;;
17482;SDS011;8858;52.308;20.994;2023-02-16T01:00:14;73.07;;;45.17;;
17482;SDS011;8858;52.308;20.994;2023-02-16T01:02:46;74.70;;;45.23;;
17482;SDS011;8858;52.308;20.994;2023-02-16T01:05:19;69.73;;;43.77;;
17482;SDS011;8858;52.308;20.994;2023-02-16T01:07:49;73.57;;;45.20;;
17482;SDS011;8858;52.308;20.994;2023-02-16T01:10:36;72.53;;;45.13;;
17482;SDS011;8858;52.308;20.994;2023-02-16T01:13:23;70.47;;;45.70;;
17482;SDS011;8858;52.308;20.994;2023-02-16T01:15:56;68.87;;;43.37;;
17482;SDS011;8858;52.308;20.994;2023-02-16T01:18:27;70.50;;;44.17;;
17482;SDS011;8858;52.308;20.994;2023-02-16T01:20:56;66.40;;;44.17;;
17482;SDS011;8858;52.308;20.994;2023-02-16T01:23:26;69.47;;;43.53;;
17482;SDS011;8858;52.308;20.994;2023-02-16T01:25:55;72.40;;;44.90;;
17482;SDS011;8858;52.308;20.994;2023-02-16T01:28:24;73.33;;;45.63;;
17482;SDS011;8858;52.308;20.994;2023-02-16T01:30:53;77.33;;;45.33;;
17482;SDS011;8858;52.308;20.994;2023-02-16T01:33:23;77.43;;;47.60;;
17482;SDS011;8858;52.308;20.994;2023-02-16T01:35:53;70.80;;;45.03;;
17482;SDS011;8858;52.308;20.994;2023-02-16T01:38:26;72.63;;;45.53;;
17482;SDS011;8858;52.308;20.994;2023-02-16T01:40:57;73.73;;;44.57;;
17482;SDS011;8858;52.308;20.994;2023-02-16T01:43:49;68.40;;;42.13;;
17482;SDS011;8858;52.308;20.994;2023-02-16T01:46:24;73.20;;;42.57;;
17482;SDS011;8858;52.308;20.994;2023-02-16T01:49:01;70.40;;;43.67;;
17482;SDS011;8858;52.308;20.994;2023-02-16T01:51:32;74.57;;;44.40;;
17482;SDS011;8858;52.308;20.994;2023-02-16T01:54:05;67.17;;;42.00;;
17482;SDS011;8858;52.308;20.994;2023-02-16T01:56:40;71.73;;;43.10;;
17482;SDS011;8858;52.308;20.994;2023-02-16T01:59:14;71.27;;;42.57;;
17482;SDS011;8858;52.308;20.994;2023-02-16T02:01:54;64.97;;;41.73;;
17482;SDS011;8858;52.308;20.994;2023-02-16T02:04:27;72.50;;;42.70;;
17482;SDS011;8858;52.308;20.994;2023-02-16T02:07:20;68.27;;;42.63;;
17482;SDS011;8858;52.308;20.994;2023-02-16T02:09:56;66.10;;;42.10;;
17482;SDS011;8858;52.308;20.994;2023-02-16T02:12:31;70.43;;;42.73;;
17482;SDS011;8858;52.308;20.994;2023-02-16T02:15:08;69.33;;;42.67;;
17482;SDS011;8858;52.308;20.994;2023-02-16T02:17:37;69.57;;;42.63;;
17482;SDS011;8858;52.308;20.994;2023-02-16T02:20:10;66.60;;;42.00;;
17482;SDS011;8858;52.308;20.994;2023-02-16T02:22:59;71.40;;;43.57;;
17482;SDS011;8858;52.308;20.994;2023-02-16T02:29:09;72.73;;;41.20;;
17482;SDS011;8858;52.308;20.994;2023-02-16T02:32:05;73.70;;;41.87;;
17482;SDS011;8858;52.308;20.994;2023-02-16T02:34:44;67.30;;;42.33;;
17482;SDS011;8858;52.308;20.994;2023-02-16T02:37:23;69.00;;;42.30;;
17482;SDS011;8858;52.308;20.994;2023-02-16T02:39:58;68.13;;;42.30;;
17482;SDS011;8858;52.308;20.994;2023-02-16T02:42:35;65.37;;;41.40;;
17482;SDS011;8858;52.308;20.994;2023-02-16T02:45:14;67.67;;;42.07;;
17482;SDS011;8858;52.308;20.994;2023-02-16T02:47:47;72.63;;;44.30;;
17482;SDS011;8858;52.308;20.994;2023-02-16T02:50:28;67.70;;;42.13;;
17482;SDS011;8858;52.308;20.994;2023-02-16T02:53:09;69.73;;;41.67;;
17482;SDS011;8858;52.308;20.994;2023-02-16T02:55:43;68.10;;;42.47;;
17482;SDS011;8858;52.308;20.994;2023-02-16T02:58:35;67.53;;;41.43;;
17482;SDS011;8858;52.308;20.994;2023-02-16T03:01:34;67.17;;;42.07;;
17482;SDS011;8858;52.308;20.994;2023-02-16T03:04:07;73.10;;;43.77;;
17482;SDS011;8858;52.308;20.994;2023-02-16T03:06:39;68.00;;;42.07;;
17482;SDS011;8858;52.308;20.994;2023-02-16T03:09:14;74.00;;;43.57;;
17482;SDS011;8858;52.308;20.994;2023-02-16T03:11:43;73.90;;;44.07;;
17482;SDS011;8858;52.308;20.994;2023-02-16T03:14:32;70.70;;;42.63;;
17482;SDS011;8858;52.308;20.994;2023-02-16T03:17:05;72.33;;;43.27;;
17482;SDS011;8858;52.308;20.994;2023-02-16T03:19:58;72.33;;;42.93;;
17482;SDS011;8858;52.308;20.994;2023-02-16T03:22:47;72.73;;;43.47;;
17482;SDS011;8858;52.308;20.994;2023-02-16T03:25:34;72.23;;;44.23;;
17482;SDS011;8858;52.308;20.994;2023-02-16T03:28:26;65.83;;;42.23;;
17482;SDS011;8858;52.308;20.994;2023-02-16T03:31:16;70.77;;;43.53;;
17482;SDS011;8858;52.308;20.994;2023-02-16T03:33:49;71.13;;;43.73;;
17482;SDS011;8858;52.308;20.994;2023-02-16T03:36:24;69.60;;;43.20;;
17482;SDS011;8858;52.308;20.994;2023-02-16T03:38:56;67.90;;;43.47;;
17482;SDS011;8858;52.308;20.994;2023-02-16T03:41:30;69.37;;;42.30;;
17482;SDS011;8858;52.308;20.994;2023-02-16T03:43:59;71.00;;;44.87;;
17482;SDS011;8858;52.308;20.994;2023-02-16T03:46:29;70.23;;;41.50;;
17482;SDS011;8858;52.308;20.994;2023-02-16T03:49:04;65.10;;;42.20;;
17482;SDS011;8858;52.308;20.994;2023-02-16T03:51:32;67.87;;;42.07;;
17482;SDS011;8858;52.308;20.994;2023-02-16T03:54:01;72.57;;;43.73;;
17482;SDS011;8858;52.308;20.994;2023-02-16T03:56:31;72.67;;;44.53;;
17482;SDS011;8858;52.308;20.994;2023-02-16T03:59:01;74.27;;;43.87;;
17482;SDS011;8858;52.308;20.994;2023-02-16T04:01:29;71.47;;;43.90;;
17482;SDS011;8858;52.308;20.994;2023-02-16T04:03:58;71.63;;;44.00;;
17482;SDS011;8858;52.308;20.994;2023-02-16T04:06:28;73.20;;;44.30;;
17482;SDS011;8858;52.308;20.994;2023-02-16T04:08:56;72.63;;;43.37;;
17482;SDS011;8858;52.308;20.994;2023-02-16T04:11:25;71.63;;;43.97;;
17482;SDS011;8858;52.308;20.994;2023-02-16T04:14:14;70.97;;;44.20;;
17482;SDS011;8858;52.308;20.994;2023-02-16T04:16:43;73.13;;;45.20;;
17482;SDS011;8858;52.308;20.994;2023-02-16T04:19:12;72.27;;;45.57;;
17482;SDS011;8858;52.308;20.994;2023-02-16T04:21:42;73.00;;;44.43;;
17482;SDS011;8858;52.308;20.994;2023-02-16T04:24:12;80.43;;;46.27;;
17482;SDS011;8858;52.308;20.994;2023-02-16T04:26:41;71.53;;;43.50;;
17482;SDS011;8858;52.308;20.994;2023-02-16T04:29:14;73.83;;;45.53;;
17482;SDS011;8858;52.308;20.994;2023-02-16T04:31:43;77.67;;;45.73;;
17482;SDS011;8858;52.308;20.994;2023-02-16T04:34:13;71.73;;;43.97;;
17482;SDS011;8858;52.308;20.994;2023-02-16T04:36:43;71.57;;;44.20;;
17482;SDS011;8858;52.308;20.994;2023-02-16T04:39:11;73.77;;;45.33;;
17482;SDS011;8858;52.308;20.994;2023-02-16T04:41:40;74.97;;;44.30;;
17482;SDS011;8858;52.308;20.994;2023-02-16T04:44:09;68.40;;;43.60;;
17482;SDS011;8858;52.308;20.994;2023-02-16T04:46:37;69.63;;;42.90;;
17482;SDS011;8858;52.308;20.994;2023-02-16T04:49:09;70.23;;;44.70;;
17482;SDS011;8858;52.308;20.994;2023-02-16T04:51:37;71.40;;;44.07;;
17482;SDS011;8858;52.308;20.994;2023-02-16T04:54:10;67.90;;;42.30;;
17482;SDS011;8858;52.308;20.994;2023-02-16T04:56:38;69.57;;;43.13;;
17482;SDS011;8858;52.308;20.994;2023-02-16T04:59:09;68.87;;;43.60;;
17482;SDS011;8858;52.308;20.994;2023-02-16T05:01:37;67.53;;;43.93;;
17482;SDS011;8858;52.308;20.994;2023-02-16T05:04:06;68.23;;;42.87;;
17482;SDS011;8858;52.308;20.994;2023-02-16T05:06:36;72.43;;;42.80;;
17482;SDS011;8858;52.308;20.994;2023-02-16T05:09:05;69.83;;;42.47;;
17482;SDS011;8858;52.308;20.994;2023-02-16T05:11:35;74.87;;;45.37;;
17482;SDS011;8858;52.308;20.994;2023-02-16T05:14:26;70.97;;;43.23;;
17482;SDS011;8858;52.308;20.994;2023-02-16T05:17:08;72.17;;;44.27;;
17482;SDS011;8858;52.308;20.994;2023-02-16T05:19:39;73.17;;;44.03;;
17482;SDS011;8858;52.308;20.994;2023-02-16T05:22:08;75.17;;;45.60;;
17482;SDS011;8858;52.308;20.994;2023-02-16T05:24:37;78.07;;;45.53;;
17482;SDS011;8858;52.308;20.994;2023-02-16T05:27:10;73.00;;;44.13;;
17482;SDS011;8858;52.308;20.994;2023-02-16T05:29:40;77.47;;;44.03;;
17482;SDS011;8858;52.308;20.994;2023-02-16T05:32:09;76.60;;;44.43;;
17482;SDS011;8858;52.308;20.994;2023-02-16T05:34:37;71.90;;;43.37;;
17482;SDS011;8858;52.308;20.994;2023-02-16T05:37:05;75.33;;;44.67;;
17482;SDS011;8858;52.308;20.994;2023-02-16T05:39:36;80.40;;;46.93;;
17482;SDS011;8858;52.308;20.994;2023-02-16T05:42:05;76.70;;;46.20;;
17482;SDS011;8858;52.308;20.994;2023-02-16T05:44:35;72.37;;;44.00;;
17482;SDS011;8858;52.308;20.994;2023-02-16T05:47:04;76.43;;;46.23;;
17482;SDS011;8858;52.308;20.994;2023-02-16T05:49:32;78.27;;;46.70;;
17482;SDS011;8858;52.308;20.994;2023-02-16T05:52:01;75.77;;;45.43;;
17482;SDS011;8858;52.308;20.994;2023-02-16T05:54:29;78.00;;;46.47;;
17482;SDS011;8858;52.308;20.994;2023-02-16T05:56:57;75.93;;;46.67;;
17482;SDS011;8858;52.308;20.994;2023-02-16T05:59:25;79.33;;;45.30;;
17482;SDS011;8858;52.308;20.994;2023-02-16T06:01:55;83.67;;;46.33;;
17482;SDS011;8858;52.308;20.994;2023-02-16T06:04:23;71.87;;;43.50;;
17482;SDS011;8858;52.308;20.994;2023-02-16T06:06:52;75.73;;;46.00;;
17482;SDS011;8858;52.308;20.994;2023-02-16T06:12:15;77.77;;;44.87;;
17482;SDS011;8858;52.308;20.994;2023-02-16T06:14:43;79.27;;;46.13;;
17482;SDS011;8858;52.308;20.994;2023-02-16T06:17:13;67.83;;;43.07;;
17482;SDS011;8858;52.308;20.994;2023-02-16T06:19:42;79.00;;;45.70;;
17482;SDS011;8858;52.308;20.994;2023-02-16T06:22:14;78.13;;;46.87;;
17482;SDS011;8858;52.308;20.994;2023-02-16T06:24:42;80.07;;;46.80;;
17482;SDS011;8858;52.308;20.994;2023-02-16T06:27:11;72.27;;;43.03;;
17482;SDS011;8858;52.308;20.994;2023-02-16T06:29:40;93.43;;;54.60;;
17482;SDS011;8858;52.308;20.994;2023-02-16T06:32:08;83.43;;;49.17;;
17482;SDS011;8858;52.308;20.994;2023-02-16T06:34:38;68.93;;;42.07;;
17482;SDS011;8858;52.308;20.994;2023-02-16T06:37:07;73.43;;;44.40;;
17482;SDS011;8858;52.308;20.994;2023-02-16T06:39:35;76.70;;;44.57;;
17482;SDS011;8858;52.308;20.994;2023-02-16T06:42:04;79.17;;;44.87;;
17482;SDS011;8858;52.308;20.994;2023-02-16T06:44:34;72.60;;;43.47;;
17482;SDS011;8858;52.308;20.994;2023-02-16T06:47:02;74.30;;;43.83;;
17482;SDS011;8858;52.308;20.994;2023-02-16T06:49:30;80.27;;;43.63;;
17482;SDS011;8858;52.308;20.994;2023-02-16T06:52:00;67.20;;;42.23;;
17482;SDS011;8858;52.308;20.994;2023-02-16T06:54:30;76.57;;;45.27;;
17482;SDS011;8858;52.308;20.994;2023-02-16T06:56:58;71.30;;;43.77;;
17482;SDS011;8858;52.308;20.994;2023-02-16T06:59:30;72.83;;;44.07;;
17482;SDS011;8858;52.308;20.994;2023-02-16T07:01:58;72.43;;;43.10;;
17482;SDS011;8858;52.308;20.994;2023-02-16T07:04:27;71.33;;;44.03;;
17482;SDS011;8858;52.308;20.994;2023-02-16T07:06:58;75.10;;;44.30;;
17482;SDS011;8858;52.308;20.994;2023-02-16T07:09:28;75.70;;;44.60;;
17482;SDS011;8858;52.308;20.994;2023-02-16T07:11:58;77.20;;;43.87;;
17482;SDS011;8858;52.308;20.994;2023-02-16T07:14:26;69.10;;;43.30;;
17482;SDS011;8858;52.308;20.994;2023-02-16T07:16:54;80.03;;;42.93;;
17482;SDS011;8858;52.308;20.994;2023-02-16T07:19:26;69.70;;;43.23;;
17482;SDS011;8858;52.308;20.994;2023-02-16T07:21:57;69.37;;;42.37;;
17482;SDS011;8858;52.308;20.994;2023-02-16T07:24:30;68.33;;;42.10;;
17482;SDS011;8858;52.308;20.994;2023-02-16T07:26:58;69.97;;;43.23;;
17482;SDS011;8858;52.308;20.994;2023-02-16T07:29:26;73.93;;;42.83;;
17482;SDS011;8858;52.308;20.994;2023-02-16T07:31:56;72.07;;;43.57;;
17482;SDS011;8858;52.308;20.994;2023-02-16T07:34:25;68.40;;;41.43;;
17482;SDS011;8858;52.308;20.994;2023-02-16T07:36:54;73.60;;;43.70;;
17482;SDS011;8858;52.308;20.994;2023-02-16T07:39:23;69.20;;;43.33;;
17482;SDS011;8858;52.308;20.994;2023-02-16T07:41:53;75.90;;;43.10;;
17482;SDS011;8858;52.308;20.994;2023-02-16T07:44:25;71.73;;;42.50;;
17482;SDS011;8858;52.308;20.994;2023-02-16T07:46:53;66.57;;;40.77;;
17482;SDS011;8858;52.308;20.994;2023-02-16T07:49:24;72.03;;;43.83;;
17482;SDS011;8858;52.308;20.994;2023-02-16T07:51:52;69.40;;;41.93;;
17482;SDS011;8858;52.308;20.994;2023-02-16T07:54:21;72.50;;;44.87;;
17482;SDS011;8858;52.308;20.994;2023-02-16T07:56:54;71.97;;;44.73;;
17482;SDS011;8858;52.308;20.994;2023-02-16T07:59:22;70.93;;;43.97;;
17482;SDS011;8858;52.308;20.994;2023-02-16T08:01:51;71.13;;;43.80;;
17482;SDS011;8858;52.308;20.994;2023-02-16T08:04:20;70.53;;;43.07;;
17482;SDS011;8858;52.308;20.994;2023-02-16T08:06:48;69.57;;;43.10;;
17482;SDS011;8858;52.308;20.994;2023-02-16T08:09:16;70.27;;;44.13;;
17482;SDS011;8858;52.308;20.994;2023-02-16T08:11:45;69.23;;;43.10;;
17482;SDS011;8858;52.308;20.994;2023-02-16T08:14:15;73.73;;;45.17;;
17482;SDS011;8858;52.308;20.994;2023-02-16T08:16:43;73.97;;;45.13;;
17482;SDS011;8858;52.308;20.994;2023-02-16T08:19:12;70.40;;;43.47;;
17482;SDS011;8858;52.308;20.994;2023-02-16T08:21:40;71.43;;;43.03;;
17482;SDS011;8858;52.308;20.994;2023-02-16T08:24:12;75.50;;;43.30;;
17482;SDS011;8858;52.308;20.994;2023-02-16T08:26:41;67.70;;;41.57;;
17482;SDS011;8858;52.308;20.994;2023-02-16T08:29:16;70.67;;;43.77;;
17482;SDS011;8858;52.308;20.994;2023-02-16T08:31:46;66.67;;;41.50;;
17482;SDS011;8858;52.308;20.994;2023-02-16T08:34:19;78.13;;;44.90;;
17482;SDS011;8858;52.308;20.994;2023-02-16T08:36:50;71.23;;;42.63;;
17482;SDS011;8858;52.308;20.994;2023-02-16T08:39:22;82.30;;;47.43;;
17482;SDS011;8858;52.308;20.994;2023-02-16T08:41:52;74.77;;;44.20;;
17482;SDS011;8858;52.308;20.994;2023-02-16T08:44:22;69.37;;;43.60;;
17482;SDS011;8858;52.308;20.994;2023-02-16T08:46:52;70.60;;;44.23;;
17482;SDS011;8858;52.308;20.994;2023-02-16T08:49:24;75.13;;;44.47;;
17482;SDS011;8858;52.308;20.994;2023-02-16T08:51:57;72.60;;;43.97;;
17482;SDS011;8858;52.308;20.994;2023-02-16T08:54:28;74.67;;;45.63;;
17482;SDS011;8858;52.308;20.994;2023-02-16T08:56:59;73.70;;;45.00;;
17482;SDS011;8858;52.308;20.994;2023-02-16T08:59:29;75.33;;;46.17;;
17482;SDS011;8858;52.308;20.994;2023-02-16T09:01:59;73.63;;;46.17;;
17482;SDS011;8858;52.308;20.994;2023-02-16T09:04:29;76.50;;;44.90;;
17482;SDS011;8858;52.308;20.994;2023-02-16T09:06:58;74.23;;;43.87;;
17482;SDS011;8858;52.308;20.994;2023-02-16T09:09:31;70.10;;;43.60;;
17482;SDS011;8858;52.308;20.994;2023-02-16T09:11:59;68.07;;;42.20;;
17482;SDS011;8858;52.308;20.994;2023-02-16T09:14:29;73.47;;;43.00;;
17482;SDS011;8858;52.308;20.994;2023-02-16T09:16:58;67.10;;;42.00;;
17482;SDS011;8858;52.308;20.994;2023-02-16T09:19:28;63.70;;;40.90;;
17482;SDS011;8858;52.308;20.994;2023-02-16T09:22:20;68.83;;;42.53;;
17482;SDS011;8858;52.308;20.994;2023-02-16T09:24:48;60.73;;;40.30;;
17482;SDS011;8858;52.308;20.994;2023-02-16T09:27:18;71.93;;;42.50;;
17482;SDS011;8858;52.308;20.994;2023-02-16T09:29:48;62.37;;;40.57;;
17482;SDS011;8858;52.308;20.994;2023-02-16T09:32:16;65.17;;;40.87;;
17482;SDS011;8858;52.308;20.994;2023-02-16T09:34:46;68.10;;;41.20;;
17482;SDS011;8858;52.308;20.994;2023-02-16T09:37:15;64.13;;;40.33;;
17482;SDS011;8858;52.308;20.994;2023-02-16T09:39:45;62.20;;;40.77;;
17482;SDS011;8858;52.308;20.994;2023-02-16T09:42:17;67.47;;;41.93;;
17482;SDS011;8858;52.308;20.994;2023-02-16T09:44:54;64.90;;;40.13;;
17482;SDS011;8858;52.308;20.994;2023-02-16T09:47:32;63.40;;;39.27;;
17482;SDS011;8858;52.308;20.994;2023-02-16T09:50:05;61.83;;;39.47;;
17482;SDS011;8858;52.308;20.994;2023-02-16T09:52:41;64.03;;;41.10;;
17482;SDS011;8858;52.308;20.994;2023-02-16T09:55:13;60.37;;;39.33;;
17482;SDS011;8858;52.308;20.994;2023-02-16T09:57:49;65.43;;;40.40;;
17482;SDS011;8858;52.308;20.994;2023-02-16T10:00:27;65.57;;;40.30;;
17482;SDS011;8858;52.308;20.994;2023-02-16T10:03:12;65.63;;;40.37;;
17482;SDS011;8858;52.308;20.994;2023-02-16T10:06:01;59.23;;;38.43;;
17482;SDS011;8858;52.308;20.994;2023-02-16T10:08:45;61.03;;;39.90;;
17482;SDS011;8858;52.308;20.994;2023-02-16T10:11:19;63.00;;;38.77;;
17482;SDS011;8858;52.308;20.994;2023-02-16T10:14:10;60.13;;;39.27;;
17482;SDS011;8858;52.308;20.994;2023-02-16T10:16:51;60.33;;;39.97;;
17482;SDS011;8858;52.308;20.994;2023-02-16T10:19:25;63.37;;;39.73;;
17482;SDS011;8858;52.308;20.994;2023-02-16T10:21:58;63.07;;;36.20;;
17482;SDS011;8858;52.308;20.994;2023-02-16T10:24:30;57.20;;;35.10;;
17482;SDS011;8858;52.308;20.994;2023-02-16T10:27:06;61.70;;;37.50;;
17482;SDS011;8858;52.308;20.994;2023-02-16T10:29:41;62.70;;;38.47;;
17482;SDS011;8858;52.308;20.994;2023-02-16T10:32:17;62.67;;;39.37;;
17482;SDS011;8858;52.308;20.994;2023-02-16T10:34:54;62.60;;;37.97;;
17482;SDS011;8858;52.308;20.994;2023-02-16T10:37:39;61.33;;;39.67;;
17482;SDS011;8858;52.308;20.994;2023-02-16T10:40:22;60.73;;;39.30;;
17482;SDS011;8858;52.308;20.994;2023-02-16T10:42:59;61.63;;;39.03;;
17482;SDS011;8858;52.308;20.994;2023-02-16T10:45:39;55.73;;;37.23;;
17482;SDS011;8858;52.308;20.994;2023-02-16T10:48:20;58.53;;;40.63;;
17482;SDS011;8858;52.308;20.994;2023-02-16T10:50:52;58.40;;;37.70;;
17482;SDS011;8858;52.308;20.994;2023-02-16T10:53:30;60.93;;;39.70;;
17482;SDS011;8858;52.308;20.994;2023-02-16T10:56:20;63.37;;;42.00;;
17482;SDS011;8858;52.308;20.994;2023-02-16T10:59:04;59.30;;;39.27;;
17482;SDS011;8858;52.308;20.994;2023-02-16T11:01:35;58.73;;;38.27;;
17482;SDS011;8858;52.308;20.994;2023-02-16T11:04:06;57.50;;;37.77;;
17482;SDS011;8858;52.308;20.994;2023-02-16T11:06:38;55.07;;;37.53;;
17482;SDS011;8858;52.308;20.994;2023-02-16T11:09:08;60.97;;;38.83;;
17482;SDS011;8858;52.308;20.994;2023-02-16T11:11:41;59.23;;;39.60;;
17482;SDS011;8858;52.308;20.994;2023-02-16T11:14:17;55.93;;;38.50;;
17482;SDS011;8858;52.308;20.994;2023-02-16T11:17:00;57.23;;;36.83;;
17482;SDS011;8858;52.308;20.994;2023-02-16T11:19:32;56.00;;;36.83;;
17482;SDS011;8858;52.308;20.994;2023-02-16T11:22:05;57.13;;;37.53;;
17482;SDS011;8858;52.308;20.994;2023-02-16T11:24:36;60.40;;;37.63;;
17482;SDS011;8858;52.308;20.994;2023-02-16T11:27:06;56.77;;;36.73;;
17482;SDS011;8858;52.308;20.994;2023-02-16T11:29:45;59.03;;;38.10;;
17482;SDS011;8858;52.308;20.994;2023-02-16T11:32:14;57.43;;;37.40;;
17482;SDS011;8858;52.308;20.994;2023-02-16T11:34:48;58.47;;;37.87;;
17482;SDS011;8858;52.308;20.994;2023-02-16T11:37:20;55.67;;;32.07;;
17482;SDS011;8858;52.308;20.994;2023-02-16T11:39:55;55.83;;;37.50;;
17482;SDS011;8858;52.308;20.994;2023-02-16T11:42:27;58.23;;;35.77;;
17482;SDS011;8858;52.308;20.994;2023-02-16T11:45:01;52.90;;;35.57;;
17482;SDS011;8858;52.308;20.994;2023-02-16T11:47:33;54.33;;;35.97;;
17482;SDS011;8858;52.308;20.994;2023-02-16T11:50:08;51.03;;;33.20;;
17482;SDS011;8858;52.308;20.994;2023-02-16T11:52:47;52.73;;;34.30;;
17482;SDS011;8858;52.308;20.994;2023-02-16T11:55:18;54.03;;;35.70;;
17482;SDS011;8858;52.308;20.994;2023-02-16T11:57:52;53.17;;;33.80;;
17482;SDS011;8858;52.308;20.994;2023-02-16T12:00:24;55.67;;;33.57;;
17482;SDS011;8858;52.308;20.994;2023-02-16T12:05:49;55.23;;;35.37;;
17482;SDS011;8858;52.308;20.994;2023-02-16T12:08:33;50.23;;;35.20;;
17482;SDS011;8858;52.308;20.994;2023-02-16T12:11:24;49.13;;;35.03;;
17482;SDS011;8858;52.308;20.994;2023-02-16T12:14:11;53.40;;;35.80;;
17482;SDS011;8858;52.308;20.994;2023-02-16T12:16:57;49.37;;;34.03;;
17482;SDS011;8858;52.308;20.994;2023-02-16T12:19:35;54.47;;;35.17;;
17482;SDS011;8858;52.308;20.994;2023-02-16T12:25:16;50.10;;;33.07;;
17482;SDS011;8858;52.308;20.994;2023-02-16T12:27:51;48.67;;;33.67;;
17482;SDS011;8858;52.308;20.994;2023-02-16T12:30:34;51.23;;;34.53;;
17482;SDS011;8858;52.308;20.994;2023-02-16T12:33:18;50.30;;;34.40;;
17482;SDS011;8858;52.308;20.994;2023-02-16T12:39:07;45.03;;;30.50;;
17482;SDS011;8858;52.308;20.994;2023-02-16T12:41:47;47.60;;;33.03;;
17482;SDS011;8858;52.308;20.994;2023-02-16T12:44:28;43.77;;;30.20;;
17482;SDS011;8858;52.308;20.994;2023-02-16T12:47:02;51.10;;;33.27;;
17482;SDS011;8858;52.308;20.994;2023-02-16T12:49:41;47.47;;;33.17;;
17482;SDS011;8858;52.308;20.994;2023-02-16T12:52:19;55.77;;;35.50;;
17482;SDS011;8858;52.308;20.994;2023-02-16T12:55:00;49.17;;;32.43;;
17482;SDS011;8858;52.308;20.994;2023-02-16T12:57:40;48.13;;;33.20;;
17482;SDS011;8858;52.308;20.994;2023-02-16T13:00:19;47.90;;;33.40;;
17482;SDS011;8858;52.308;20.994;2023-02-16T13:02:54;46.37;;;31.47;;
17482;SDS011;8858;52.308;20.994;2023-02-16T13:05:31;47.13;;;31.83;;
17482;SDS011;8858;52.308;20.994;2023-02-16T13:08:05;44.47;;;29.97;;
17482;SDS011;8858;52.308;20.994;2023-02-16T13:10:46;46.70;;;31.13;;
17482;SDS011;8858;52.308;20.994;2023-02-16T13:13:23;45.50;;;30.40;;
17482;SDS011;8858;52.308;20.994;2023-02-16T13:15:59;46.63;;;32.23;;
17482;SDS011;8858;52.308;20.994;2023-02-16T13:18:30;48.57;;;32.87;;
17482;SDS011;8858;52.308;20.994;2023-02-16T13:21:07;43.73;;;31.20;;
17482;SDS011;8858;52.308;20.994;2023-02-16T13:23:49;41.97;;;29.07;;
17482;SDS011;8858;52.308;20.994;2023-02-16T13:26:36;43.77;;;30.00;;
17482;SDS011;8858;52.308;20.994;2023-02-16T13:29:23;43.93;;;29.17;;
17482;SDS011;8858;52.308;20.994;2023-02-16T13:32:02;46.53;;;31.13;;
17482;SDS011;8858;52.308;20.994;2023-02-16T13:34:52;42.37;;;30.97;;
17482;SDS011;8858;52.308;20.994;2023-02-16T13:37:38;44.97;;;30.23;;
17482;SDS011;8858;52.308;20.994;2023-02-16T13:40:28;46.53;;;31.03;;
17482;SDS011;8858;52.308;20.994;2023-02-16T13:43:13;47.43;;;30.27;;
17482;SDS011;8858;52.308;20.994;2023-02-16T13:45:53;46.50;;;31.47;;
17482;SDS011;8858;52.308;20.994;2023-02-16T13:48:22;50.20;;;32.17;;
17482;SDS011;8858;52.308;20.994;2023-02-16T13:50:57;44.47;;;32.13;;
17482;SDS011;8858;52.308;20.994;2023-02-16T13:53:31;44.63;;;30.70;;
17482;SDS011;8858;52.308;20.994;2023-02-16T14:05:34;47.70;;;32.17;;
17482;SDS011;8858;52.308;20.994;2023-02-16T14:11:05;50.73;;;32.93;;
17482;SDS011;8858;52.308;20.994;2023-02-16T14:13:45;48.97;;;32.77;;
17482;SDS011;8858;52.308;20.994;2023-02-16T14:16:28;47.53;;;32.73;;
17482;SDS011;8858;52.308;20.994;2023-02-16T14:19:05;47.47;;;32.63;;
17482;SDS011;8858;52.308;20.994;2023-02-16T14:21:46;47.47;;;32.23;;
17482;SDS011;8858;52.308;20.994;2023-02-16T14:24:24;47.43;;;31.97;;
17482;SDS011;8858;52.308;20.994;2023-02-16T14:26:57;46.57;;;31.33;;
17482;SDS011;8858;52.308;20.994;2023-02-16T14:29:27;49.53;;;34.00;;
17482;SDS011;8858;52.308;20.994;2023-02-16T14:32:01;50.37;;;33.63;;
17482;SDS011;8858;52.308;20.994;2023-02-16T14:34:38;51.97;;;32.63;;
17482;SDS011;8858;52.308;20.994;2023-02-16T14:37:26;47.57;;;34.50;;
17482;SDS011;8858;52.308;20.994;2023-02-16T14:40:13;52.13;;;33.97;;
17482;SDS011;8858;52.308;20.994;2023-02-16T14:42:46;49.67;;;32.83;;
17482;SDS011;8858;52.308;20.994;2023-02-16T14:45:32;54.40;;;35.60;;
17482;SDS011;8858;52.308;20.994;2023-02-16T14:48:29;50.73;;;36.37;;
17482;SDS011;8858;52.308;20.994;2023-02-16T14:51:18;53.23;;;36.13;;
17482;SDS011;8858;52.308;20.994;2023-02-16T14:54:15;56.40;;;36.60;;
17482;SDS011;8858;52.308;20.994;2023-02-16T14:57:03;52.03;;;36.57;;
17482;SDS011;8858;52.308;20.994;2023-02-16T14:59:39;55.87;;;36.90;;
17482;SDS011;8858;52.308;20.994;2023-02-16T15:02:22;53.53;;;37.20;;
17482;SDS011;8858;52.308;20.994;2023-02-16T15:04:52;54.07;;;35.67;;
17482;SDS011;8858;52.308;20.994;2023-02-16T15:07:26;53.20;;;36.23;;
17482;SDS011;8858;52.308;20.994;2023-02-16T15:09:55;56.43;;;34.10;;
17482;SDS011;8858;52.308;20.994;2023-02-16T15:12:36;51.83;;;35.80;;
17482;SDS011;8858;52.308;20.994;2023-02-16T15:15:07;52.33;;;34.70;;
17482;SDS011;8858;52.308;20.994;2023-02-16T15:17:44;56.53;;;35.67;;
17482;SDS011;8858;52.308;20.994;2023-02-16T15:20:17;49.83;;;30.90;;
17482;SDS011;8858;52.308;20.994;2023-02-16T15:22:55;49.40;;;34.57;;
17482;SDS011;8858;52.308;20.994;2023-02-16T15:25:26;52.57;;;34.27;;
17482;SDS011;8858;52.308;20.994;2023-02-16T15:27:59;53.13;;;35.10;;
17482;SDS011;8858;52.308;20.994;2023-02-16T15:30:31;55.10;;;36.07;;